Time;durP1;ratioP1;P1;durP2;ratioP2;P2;SDS_P1;SDS_P2;PMS_P1;PMS_P2;Temp;Humidity;BMP_temperature;BMP_pressure;BME280_temperature;BME280_humidity;BME280_pressure;Samples;Min_cycle;Max_cycle;Signal;HPM_P1;HPM_P2
2024/04/22 00:00:27;;;;;;;0.60;0.10;;;;;;;8.41;65.56;99579.23;105663;1264;61449;-81
2024/04/22 00:02:55;;;;;;;0.90;0.30;;;;;;;8.36;65.61;99588.56;105539;1260;61346;-86
2024/04/22 00:05:24;;;;;;;0.00;0.00;;;;;;;8.37;65.60;99594.77;105788;1261;64484;-88
2024/04/22 00:07:52;;;;;;;2.10;0.00;;;;;;;8.41;65.52;99600.71;105457;1261;63091;-81
2024/04/22 00:10:19;;;;;;;1.80;0.10;;;;;;;8.45;65.51;99598.70;105497;1265;63709;-84
2024/04/22 00:12:47;;;;;;;1.20;0.30;;;;;;;8.47;65.41;99605.64;105402;1264;61244;-86
2024/04/22 00:15:14;;;;;;;2.00;0.80;;;;;;;8.43;65.16;99607.40;105425;1265;61166;-82
2024/04/22 00:17:42;;;;;;;0.30;0.00;;;;;;;8.38;64.94;99612.14;106154;1260;64513;-85
2024/04/22 00:20:09;;;;;;;1.00;0.10;;;;;;;8.32;65.05;99617.04;105847;1266;61482;-85
2024/04/22 00:22:37;;;;;;;0.10;0.00;;;;;;;8.34;64.96;99620.16;105465;1267;63915;-88
2024/04/22 00:25:05;;;;;;;0.40;0.10;;;;;;;8.38;64.96;99621.88;105681;1264;61449;-85
2024/04/22 00:27:33;;;;;;;0.70;0.10;;;;;;;8.44;64.94;99627.77;106365;1260;61370;-89
2024/04/22 00:30:00;;;;;;;0.30;0.00;;;;;;;8.48;64.88;99631.11;106338;1262;65714;-86
2024/04/22 00:32:27;;;;;;;1.20;0.20;;;;;;;8.50;64.79;99636.67;105480;1266;61174;-88
2024/04/22 00:34:55;;;;;;;0.00;0.00;;;;;;;8.47;64.49;99641.33;105307;1264;63708;-82
2024/04/22 00:37:25;;;;;;;0.60;0.20;;;;;;;8.46;64.49;99646.65;106570;1260;61293;-86
2024/04/22 00:39:53;;;;;;;0.50;0.00;;;;;;;8.48;64.42;99648.28;108595;1261;58570;-78
2024/04/22 00:42:20;;;;;;;0.70;0.00;;;;;;;8.52;64.09;99658.20;107761;1259;64536;-85
2024/04/22 00:44:48;;;;;;;0.40;0.00;;;;;;;8.58;63.84;99655.82;107658;1260;61235;-84
2024/04/22 00:47:15;;;;;;;0.60;0.10;;;;;;;8.62;63.83;99663.11;106290;1260;62457;-89
2024/04/22 00:49:43;;;;;;;0.60;0.10;;;;;;;8.65;63.54;99664.60;105403;1267;61235;-82
2024/04/22 00:52:10;;;;;;;0.20;0.00;;;;;;;8.66;63.22;99665.49;105274;1261;61334;-80
2024/04/22 00:54:38;;;;;;;0.20;0.00;;;;;;;8.66;63.11;99668.41;105327;1267;65731;-87
2024/04/22 00:57:05;;;;;;;0.90;0.20;;;;;;;8.62;63.20;99674.00;105385;1261;61609;-84
2024/04/22 00:59:32;;;;;;;0.10;0.00;;;;;;;8.57;63.17;99676.31;105461;1264;63691;-88
2024/04/22 01:02:00;;;;;;;0.70;0.40;;;;;;;8.59;63.10;99676.39;105466;1259;61426;-84
2024/04/22 01:04:27;;;;;;;0.00;0.00;;;;;;;8.64;63.10;99678.01;105344;1260;61367;-85
2024/04/22 01:06:55;;;;;;;0.60;0.20;;;;;;;8.71;63.27;99681.15;106106;1259;64548;-83
2024/04/22 01:09:22;;;;;;;0.70;0.10;;;;;;;8.76;63.12;99687.86;105596;1264;61827;-85
2024/04/22 01:11:50;;;;;;;0.40;0.20;;;;;;;8.78;62.82;99691.59;105403;1267;63810;-82
2024/04/22 01:14:17;;;;;;;0.60;0.20;;;;;;;8.75;62.58;99701.91;105387;1259;61357;-79
2024/04/22 01:16:54;;;;;;;0.20;0.00;;;;;;;8.76;62.52;99701.50;105366;1261;61293;-83
2024/04/22 01:19:22;;;;;;;1.70;0.40;;;;;;;8.72;62.43;99697.99;106098;1259;64742;-84
2024/04/22 01:21:50;;;;;;;2.00;0.20;;;;;;;8.68;62.62;99707.60;105299;1265;61322;-85
2024/04/22 01:24:18;;;;;;;0.00;0.00;;;;;;;8.68;62.39;99709.36;105504;1259;72450;-84
2024/04/22 01:26:46;;;;;;;0.30;0.10;;;;;;;8.73;62.28;99714.14;105481;1261;61243;-84
2024/04/22 01:29:13;;;;;;;0.70;0.30;;;;;;;8.79;62.16;99720.88;105394;1265;61191;-84
2024/04/22 01:31:40;;;;;;;1.00;0.20;;;;;;;8.80;62.13;99721.79;105920;1261;64541;-85
2024/04/22 01:34:09;;;;;;;1.10;0.10;;;;;;;8.79;62.01;99729.99;105508;1263;61263;-83
2024/04/22 01:36:41;;;;;;;1.20;0.30;;;;;;;8.77;61.92;99734.72;105560;1265;62859;-87
2024/04/22 01:39:09;;;;;;;0.20;0.00;;;;;;;8.74;61.82;99743.27;105791;1265;61334;-81
2024/04/22 01:41:36;;;;;;;0.10;0.00;;;;;;;8.77;61.50;99747.92;105583;1260;61262;-86
2024/04/22 01:44:04;;;;;;;0.60;0.10;;;;;;;8.85;61.20;99748.20;105401;1260;64440;-84
2024/04/22 01:46:31;;;;;;;0.30;0.10;;;;;;;8.92;61.11;99749.85;105477;1259;71993;-84
2024/04/22 01:48:59;;;;;;;0.70;0.10;;;;;;;8.93;61.18;99755.86;106771;1263;62695;-84
2024/04/22 01:51:26;;;;;;;0.40;0.10;;;;;;;8.91;61.20;99756.90;107357;1259;61355;-83
2024/04/22 01:53:54;;;;;;;2.10;0.00;;;;;;;8.89;61.07;99763.59;106547;1260;61262;-81
2024/04/22 01:56:21;;;;;;;2.10;0.40;;;;;;;8.85;61.07;99767.40;105520;1262;65746;-82
2024/04/22 01:58:51;;;;;;;0.20;0.10;;;;;;;8.87;61.20;99768.85;105683;1265;61203;-84
2024/04/22 02:01:18;;;;;;;0.50;0.10;;;;;;;8.91;60.94;99775.27;106153;1261;63724;-83
2024/04/22 02:03:46;;;;;;;0.50;0.10;;;;;;;8.96;60.95;99778.95;108517;1259;58988;-84
2024/04/22 02:06:14;;;;;;;1.40;0.20;;;;;;;8.98;60.87;99778.20;105967;1266;61376;-83
2024/04/22 02:08:41;;;;;;;0.40;0.10;;;;;;;8.99;60.92;99782.56;105375;1260;64544;-84
2024/04/22 02:11:08;;;;;;;1.40;0.30;;;;;;;8.96;60.89;99791.91;105581;1261;61424;-82
2024/04/22 02:13:36;;;;;;;0.60;0.00;;;;;;;8.92;60.75;99793.80;105856;1266;62533;-83
2024/04/22 02:16:03;;;;;;;0.50;0.10;;;;;;;8.88;60.67;99794.63;105264;1264;61938;-86
2024/04/22 02:18:31;;;;;;;0.20;0.00;;;;;;;8.92;60.83;99801.11;105451;1262;61202;-83
2024/04/22 02:20:58;;;;;;;0.90;0.20;;;;;;;8.97;60.66;99806.80;105694;1261;64803;-83
2024/04/22 02:23:26;;;;;;;0.50;0.10;;;;;;;9.04;60.57;99805.91;105280;1260;61423;-80
2024/04/22 02:25:53;;;;;;;0.40;0.10;;;;;;;9.06;60.51;99810.07;105427;1260;63779;-82
2024/04/22 02:28:21;;;;;;;0.80;0.10;;;;;;;9.07;60.54;99814.90;105710;1260;61260;-80
2024/04/22 02:30:48;;;;;;;2.70;0.40;;;;;;;9.08;60.42;99814.81;107880;1262;61308;-81
2024/04/22 02:33:16;;;;;;;0.70;0.10;;;;;;;9.09;60.36;99820.69;107323;1260;64485;-82
2024/04/22 02:35:43;;;;;;;0.80;0.10;;;;;;;9.04;60.03;99832.88;106724;1259;61300;-82
2024/04/22 02:38:11;;;;;;;0.60;0.10;;;;;;;9.05;60.06;99835.16;105955;1263;62435;-87
2024/04/22 02:40:39;;;;;;;1.10;0.10;;;;;;;9.11;59.98;99837.17;106089;1259;61250;-83
2024/04/22 02:43:10;;;;;;;1.60;0.30;;;;;;;9.16;59.66;99842.40;105523;1260;61368;-88
2024/04/22 02:45:38;;;;;;;0.50;0.20;;;;;;;9.20;59.47;99839.96;105427;1261;64496;-88
2024/04/22 02:48:06;;;;;;;1.20;0.30;;;;;;;9.21;59.47;99842.16;105539;1260;61279;-83
2024/04/22 02:50:33;;;;;;;0.20;0.00;;;;;;;9.20;59.27;99845.23;106077;1263;63976;-85
2024/04/22 02:53:00;;;;;;;0.30;0.10;;;;;;;9.16;59.10;99848.86;105532;1262;61405;-84
2024/04/22 02:55:31;;;;;;;0.50;0.10;;;;;;;9.13;59.09;99854.87;105336;1260;61259;-80
2024/04/22 02:57:58;;;;;;;0.60;0.00;;;;;;;9.16;59.19;99854.96;105468;1265;65817;-82
2024/04/22 03:00:26;;;;;;;0.10;0.00;;;;;;;9.19;59.26;99862.26;106044;1259;61575;-79
2024/04/22 03:02:53;;;;;;;1.20;0.20;;;;;;;9.22;59.13;99875.66;105431;1259;62782;-83
2024/04/22 03:05:21;;;;;;;2.00;0.40;;;;;;;9.26;58.68;99879.34;106042;1260;61382;-84
2024/04/22 03:07:50;;;;;;;0.20;0.00;;;;;;;9.23;58.71;99878.70;107945;1259;59571;-83
2024/04/22 03:10:17;;;;;;;1.00;0.10;;;;;;;9.20;58.87;99888.44;105412;1260;64560;-81
2024/04/22 03:12:45;;;;;;;0.70;0.10;;;;;;;9.17;58.83;99885.15;105424;1266;61376;-87
2024/04/22 03:15:12;;;;;;;1.00;0.30;;;;;;;9.14;59.10;99888.94;105423;1260;63781;-81
2024/04/22 03:17:40;;;;;;;0.30;0.10;;;;;;;9.12;58.96;99894.83;105567;1267;61354;-83
2024/04/22 03:20:08;;;;;;;1.30;0.10;;;;;;;9.17;58.91;99897.97;105450;1260;61451;-87
2024/04/22 03:22:36;;;;;;;1.60;0.40;;;;;;;9.22;58.89;99905.00;105792;1265;73612;-84
2024/04/22 03:25:05;;;;;;;1.00;0.20;;;;;;;9.28;58.93;99910.86;105696;1260;61352;-81
2024/04/22 03:27:32;;;;;;;0.30;0.10;;;;;;;9.30;58.79;99912.09;105871;1261;62576;-87
2024/04/22 03:30:00;;;;;;;2.00;0.50;;;;;;;9.28;58.78;99918.15;106243;1260;61342;-86
2024/04/22 03:32:27;;;;;;;0.80;0.20;;;;;;;9.27;58.79;99919.00;107210;1259;61194;-84
2024/04/22 03:34:55;;;;;;;1.90;0.30;;;;;;;9.24;58.53;99931.80;105666;1259;64552;-87
2024/04/22 03:37:22;;;;;;;2.90;0.60;;;;;;;9.22;58.39;99926.90;105981;1262;62521;-82
2024/04/22 03:39:50;;;;;;;0.70;0.20;;;;;;;9.23;58.45;99925.46;105523;1260;62581;-85
2024/04/22 03:42:23;;;;;;;1.90;0.30;;;;;;;9.28;58.27;99929.94;105678;1262;61322;-82
2024/04/22 03:44:54;;;;;;;2.40;0.50;;;;;;;9.32;57.84;99927.88;105981;1260;61407;-84
2024/04/22 03:50:07;;;;;;;;;;;;;;;9.35;57.72;99926.77;105930;1262;61346;-84
2024/04/22 03:52:35;;;;;;;0.70;0.20;;;;;;;9.34;57.63;99933.65;106147;1260;63685;-84
2024/04/22 03:55:02;;;;;;;1.70;0.50;;;;;;;9.29;57.58;99930.20;105874;1262;61357;-81
2024/04/22 03:57:30;;;;;;;0.90;0.20;;;;;;;9.26;57.47;99935.85;106192;1260;61276;-84
2024/04/22 03:59:57;;;;;;;1.00;0.20;;;;;;;9.27;57.52;99936.80;105811;1262;65618;-84
2024/04/22 04:02:26;;;;;;;1.00;0.30;;;;;;;9.27;57.45;99940.36;107514;1260;61065;-82
2024/04/22 04:04:54;;;;;;;1.20;0.20;;;;;;;9.29;57.22;99945.92;108599;1259;63861;-80
2024/04/22 04:07:22;;;;;;;0.20;0.10;;;;;;;9.38;57.01;99952.01;105669;1260;61163;-81
2024/04/22 04:09:49;;;;;;;0.40;0.10;;;;;;;9.47;56.60;99956.20;105762;1261;61436;-81
2024/04/22 04:12:17;;;;;;;0.80;0.20;;;;;;;9.51;56.52;99963.55;105528;1264;74747;-85
2024/04/22 04:14:45;;;;;;;0.30;0.10;;;;;;;9.52;56.07;99971.73;105418;1265;61468;-85
2024/04/22 04:17:12;;;;;;;0.70;0.20;;;;;;;9.53;55.96;99973.80;106797;1262;62496;-85
2024/04/22 04:19:39;;;;;;;1.20;0.30;;;;;;;9.53;56.07;99975.40;106214;1262;61129;-84
2024/04/22 04:22:07;;;;;;;0.40;0.10;;;;;;;9.52;56.04;99985.63;106910;1260;61286;-84
2024/04/22 04:24:34;;;;;;;0.00;0.00;;;;;;;9.49;55.73;99988.45;105788;1259;65840;-81
2024/04/22 04:27:02;;;;;;;1.50;0.40;;;;;;;9.48;55.78;99995.88;106295;1260;61243;-83
2024/04/22 04:29:29;;;;;;;1.30;0.30;;;;;;;9.48;55.53;99996.77;105555;1259;62530;-84
2024/04/22 04:31:57;;;;;;;1.20;0.20;;;;;;;9.52;55.27;99998.85;106915;1259;61394;-82
2024/04/22 04:34:24;;;;;;;1.70;0.60;;;;;;;9.63;55.06;99995.67;108010;1259;60324;-79
2024/04/22 04:36:52;;;;;;;1.60;0.30;;;;;;;9.73;55.18;99999.61;108246;1259;65781;-82
2024/04/22 04:39:19;;;;;;;2.90;1.00;;;;;;;9.80;55.19;99999.05;108047;1259;60068;-85
2024/04/22 04:41:47;;;;;;;0.50;0.20;;;;;;;9.87;54.97;100004.02;105873;1259;62523;-85
2024/04/22 04:44:14;;;;;;;0.60;0.10;;;;;;;9.92;54.76;100006.64;105851;1262;61333;-84
2024/04/22 04:46:44;;;;;;;1.00;0.30;;;;;;;9.95;54.44;100003.73;107584;1259;61366;-82
2024/04/22 04:49:12;;;;;;;0.90;0.20;;;;;;;9.99;54.59;100008.29;106409;1262;64475;-82
2024/04/22 04:51:40;;;;;;;0.60;0.10;;;;;;;9.99;54.32;100018.45;106054;1267;61394;-85
2024/04/22 04:54:08;;;;;;;1.80;0.50;;;;;;;9.99;54.20;100015.47;105825;1267;63822;-86
2024/04/22 04:56:35;;;;;;;0.60;0.10;;;;;;;9.99;54.24;100015.63;106218;1260;61160;-86
2024/04/22 04:59:03;;;;;;;0.40;0.10;;;;;;;10.04;54.12;100028.77;106510;1259;61395;-85
2024/04/22 05:01:40;;;;;;;1.30;0.40;;;;;;;10.10;54.13;100032.96;106349;1259;67874;-85
2024/04/22 05:04:11;;;;;;;0.00;0.00;;;;;;;10.12;54.30;100029.02;106201;1265;61368;-80
2024/04/22 05:06:45;;;;;;;1.70;0.60;;;;;;;10.13;54.47;100034.88;106287;1259;65284;-83
2024/04/22 05:09:14;;;;;;;1.00;0.10;;;;;;;10.13;54.77;100053.58;106090;1263;61259;-85
2024/04/22 05:11:41;;;;;;;2.10;0.50;;;;;;;10.12;54.81;100056.48;108504;1259;61337;-83
2024/04/22 05:14:08;;;;;;;0.30;0.10;;;;;;;10.12;54.91;100052.10;108178;1259;76898;-83
2024/04/22 05:16:36;;;;;;;1.60;0.50;;;;;;;10.13;55.28;100054.79;108684;1259;62567;-83
2024/04/22 05:19:09;;;;;;;1.10;0.20;;;;;;;10.17;55.46;100056.08;108936;1259;63690;-83
2024/04/22 05:21:36;;;;;;;1.80;0.50;;;;;;;10.27;55.19;100068.42;106084;1268;61243;-86
2024/04/22 05:24:08;;;;;;;1.60;0.40;;;;;;;10.36;54.87;100072.91;105971;1260;61363;-81
2024/04/22 05:26:36;;;;;;;2.20;0.70;;;;;;;10.40;54.98;100081.16;106417;1262;66019;-84
2024/04/22 05:29:04;;;;;;;1.00;0.10;;;;;;;10.39;54.81;100080.57;107329;1259;61135;-84
2024/04/22 05:31:31;;;;;;;2.60;0.80;;;;;;;10.40;54.95;100086.63;108841;1259;63749;-87
2024/04/22 05:36:46;;;;;;;;;;;;;;;10.47;55.09;100098.33;108880;1259;59194;-85
2024/04/22 05:39:14;;;;;;;2.70;0.80;;;;;;;10.51;55.22;100103.96;108547;1260;64594;-83
2024/04/22 05:41:41;;;;;;;1.20;0.30;;;;;;;10.56;55.42;100104.03;107139;1263;61279;-81
2024/04/22 05:44:09;;;;;;;3.00;1.10;;;;;;;10.64;55.25;100116.02;106607;1265;62535;-85
2024/04/22 05:46:52;;;;;;;3.00;0.50;;;;;;;10.75;54.83;100122.23;102322;1292;600760;-74
2024/04/22 05:49:21;;;;;;;2.80;1.00;;;;;;;10.75;55.03;100125.75;105139;1267;59677;-71
2024/04/22 05:51:49;;;;;;;2.40;0.60;;;;;;;10.76;55.01;100132.16;104623;1267;59748;-72
2024/04/22 05:54:17;;;;;;;3.10;1.00;;;;;;;10.78;54.78;100143.02;105367;1268;75319;-73
2024/04/22 05:56:44;;;;;;;3.50;0.90;;;;;;;10.78;54.61;100148.30;105379;1267;72176;-62
2024/04/22 05:59:14;;;;;;;3.30;0.80;;;;;;;10.74;54.50;100154.77;104138;1271;65624;-64
2024/04/22 06:01:42;;;;;;;1.60;0.30;;;;;;;10.73;54.36;100157.89;104909;1269;178998;-72
2024/04/22 06:04:11;;;;;;;3.20;1.10;;;;;;;10.72;54.59;100163.94;105349;1266;62079;-72
2024/04/22 06:06:39;;;;;;;3.40;1.10;;;;;;;10.72;54.25;100172.89;107418;1266;75923;-71
2024/04/22 06:09:06;;;;;;;1.20;0.40;;;;;;;10.74;54.37;100177.46;104575;1268;62500;-60
2024/04/22 06:11:34;;;;;;;3.30;1.20;;;;;;;10.80;54.18;100180.59;104721;1266;64897;-69
2024/04/22 06:14:02;;;;;;;3.60;1.10;;;;;;;10.88;53.94;100194.48;104348;1266;62220;-76
2024/04/22 06:16:31;;;;;;;2.90;0.70;;;;;;;10.92;53.30;100205.42;104326;1264;61007;-69
2024/04/22 06:18:59;;;;;;;2.90;1.00;;;;;;;10.92;52.83;100215.92;105317;1265;76407;-71
2024/04/22 06:21:26;;;;;;;2.20;0.60;;;;;;;10.92;52.94;100224.36;105125;1269;60510;-70
2024/04/22 06:23:54;;;;;;;2.50;0.90;;;;;;;10.93;53.20;100232.38;105742;1267;64019;-74
2024/04/22 06:26:22;;;;;;;3.60;1.10;;;;;;;10.94;53.11;100249.30;105224;1265;60993;-71
2024/04/22 06:28:49;;;;;;;2.00;0.60;;;;;;;10.93;52.69;100251.15;105318;1265;60341;-75
2024/04/22 06:31:17;;;;;;;1.80;0.40;;;;;;;10.92;52.37;100247.87;105297;1270;75922;-76
2024/04/22 06:33:44;;;;;;;3.40;0.90;;;;;;;10.90;51.98;100253.64;105372;1266;63557;-73
2024/04/22 06:36:12;;;;;;;4.10;1.40;;;;;;;10.91;52.06;100263.41;105329;1266;73654;-71
2024/04/22 06:38:42;;;;;;;2.40;0.40;;;;;;;10.91;51.72;100272.16;105460;1265;60385;-66
2024/04/22 06:41:09;;;;;;;3.80;1.40;;;;;;;10.89;51.14;100280.80;105386;1265;60636;-69
2024/04/22 06:43:37;;;;;;;3.40;1.00;;;;;;;10.85;50.95;100284.80;104813;1266;67315;-75
2024/04/22 06:46:06;;;;;;;3.00;1.00;;;;;;;10.82;51.34;100282.91;105221;1264;71337;-61
2024/04/22 06:48:34;;;;;;;2.70;0.90;;;;;;;10.85;51.36;100290.93;105318;1266;64713;-73
2024/04/22 06:51:02;;;;;;;2.80;0.40;;;;;;;10.86;51.09;100299.41;105551;1267;60501;-63
2024/04/22 06:53:29;;;;;;;3.40;1.20;;;;;;;10.89;51.20;100300.64;105841;1261;60362;-65
2024/04/22 06:55:57;;;;;;;1.90;0.50;;;;;;;10.90;51.19;100305.77;105711;1262;65919;-69
2024/04/22 06:58:25;;;;;;;3.60;1.00;;;;;;;10.93;51.29;100312.36;105783;1262;72701;-67
2024/04/22 07:00:52;;;;;;;4.30;1.00;;;;;;;10.96;51.33;100316.33;105568;1262;64910;-71
2024/04/22 07:03:20;;;;;;;2.20;0.50;;;;;;;10.98;51.35;100329.52;105303;1262;60568;-70
2024/04/22 07:05:48;;;;;;;3.80;1.30;;;;;;;11.02;51.48;100333.27;105644;1261;60633;-70
2024/04/22 07:08:16;;;;;;;3.40;0.70;;;;;;;11.05;51.24;100342.44;105657;1262;63871;-68
2024/04/22 07:10:43;;;;;;;3.40;1.40;;;;;;;11.05;50.90;100347.20;104733;1261;64313;-72
2024/04/22 07:13:11;;;;;;;1.60;0.40;;;;;;;11.03;51.07;100354.76;104607;1267;62593;-72
2024/04/22 07:15:39;;;;;;;2.60;0.90;;;;;;;11.02;50.80;100359.41;105577;1263;60468;-65
2024/04/22 07:18:06;;;;;;;3.70;1.40;;;;;;;10.97;50.75;100369.63;104445;1267;60336;-64
2024/04/22 07:20:35;;;;;;;2.20;0.80;;;;;;;10.96;50.84;100368.27;105067;1262;68346;-66
2024/04/22 07:23:03;;;;;;;2.50;0.30;;;;;;;10.97;50.74;100378.53;105817;1262;64457;-58
2024/04/22 07:25:31;;;;;;;3.60;1.20;;;;;;;10.99;50.79;100379.47;105156;1263;65974;-75
2024/04/22 07:27:59;;;;;;;4.20;1.50;;;;;;;11.00;50.85;100383.95;105608;1268;60443;-72
2024/04/22 07:31:11;;;;;;;2.20;0.60;;;;;;;10.64;51.88;100391.20;103151;1293;601093;-70
2024/04/22 07:33:39;;;;;;;3.80;1.20;;;;;;;10.92;51.03;100396.54;105560;1267;59622;-71
2024/04/22 07:36:16;;;;;;;2.30;0.80;;;;;;;10.95;51.08;100400.64;104834;1267;59750;-71
2024/04/22 07:38:44;;;;;;;5.40;2.20;;;;;;;10.97;51.05;100404.85;104796;1267;65524;-68
2024/04/22 07:41:12;;;;;;;2.50;0.70;;;;;;;11.02;50.92;100412.79;105486;1266;60800;-71
2024/04/22 07:43:39;;;;;;;3.50;1.30;;;;;;;11.04;50.85;100419.48;105444;1264;169039;-61
2024/04/22 07:46:07;;;;;;;2.90;1.00;;;;;;;11.06;50.79;100422.30;104783;1264;61914;-64
2024/04/22 07:48:34;;;;;;;3.80;1.40;;;;;;;11.10;50.89;100423.17;105286;1260;62231;-67
2024/04/22 07:51:03;;;;;;;2.70;0.80;;;;;;;11.16;51.06;100421.61;105572;1261;75050;-64
2024/04/22 07:53:31;;;;;;;3.40;1.30;;;;;;;11.23;51.13;100425.09;107031;1263;62365;-62
2024/04/22 07:55:58;;;;;;;3.50;1.30;;;;;;;11.31;50.46;100427.09;106258;1260;66041;-71
2024/04/22 07:58:26;;;;;;;2.10;0.80;;;;;;;11.34;49.76;100432.41;106446;1263;60594;-73
2024/04/22 08:00:54;;;;;;;4.10;1.30;;;;;;;11.37;49.82;100433.62;105810;1260;60732;-74
2024/04/22 08:03:22;;;;;;;3.40;1.20;;;;;;;11.40;49.75;100434.05;105814;1259;67049;-65
2024/04/22 08:05:50;;;;;;;3.10;0.40;;;;;;;11.45;49.60;100432.77;105937;1263;60399;-70
2024/04/22 08:08:18;;;;;;;3.50;1.30;;;;;;;11.53;49.60;100436.16;105767;1260;73648;-62
2024/04/22 08:10:46;;;;;;;1.70;0.80;;;;;;;11.61;49.12;100440.73;106000;1260;60453;-65
2024/04/22 08:13:14;;;;;;;4.20;1.20;;;;;;;11.65;48.02;100455.38;105299;1266;62287;-66
2024/04/22 08:15:42;;;;;;;4.20;1.60;;;;;;;11.69;48.10;100445.12;105673;1265;76069;-69
2024/04/22 08:18:14;;;;;;;3.50;1.30;;;;;;;11.77;48.53;100448.55;108628;1261;60467;-74
2024/04/22 08:20:41;;;;;;;3.60;1.00;;;;;;;11.86;48.16;100457.60;107963;1261;74950;-71
2024/04/22 08:23:08;;;;;;;3.00;1.20;;;;;;;11.92;48.12;100457.50;105765;1264;60571;-63
2024/04/22 08:25:36;;;;;;;3.90;1.20;;;;;;;11.95;48.49;100462.67;106185;1260;61889;-67
2024/04/22 08:28:04;;;;;;;3.90;1.40;;;;;;;11.99;48.59;100472.94;105796;1266;67040;-71
2024/04/22 08:30:32;;;;;;;3.90;1.50;;;;;;;11.98;48.37;100480.55;104818;1266;60725;-68
2024/04/22 08:33:00;;;;;;;4.50;1.50;;;;;;;11.96;48.06;100486.87;105770;1260;65769;-66
2024/04/22 08:35:28;;;;;;;4.20;1.70;;;;;;;11.92;48.06;100486.17;106339;1261;62529;-68
2024/04/22 08:37:55;;;;;;;4.20;1.70;;;;;;;11.87;47.73;100493.56;105742;1260;62264;-70
2024/04/22 08:40:22;;;;;;;2.30;0.40;;;;;;;11.85;47.78;100481.23;105857;1259;72527;-62
2024/04/22 08:42:53;;;;;;;3.50;1.20;;;;;;;11.90;47.56;100484.61;105601;1261;72643;-74
2024/04/22 08:45:21;;;;;;;3.40;1.10;;;;;;;12.00;47.84;100487.48;106035;1260;66151;-60
2024/04/22 08:47:49;;;;;;;4.70;1.30;;;;;;;12.13;47.10;100493.95;105714;1260;61900;-68
2024/04/22 08:50:16;;;;;;;2.20;0.50;;;;;;;12.24;46.49;100507.60;105761;1259;60373;-67
2024/04/22 08:52:44;;;;;;;5.00;1.90;;;;;;;12.26;45.98;100513.55;105131;1261;64108;-61
2024/04/22 08:55:22;;;;;;;4.00;1.60;;;;;;;12.28;46.27;100509.70;104686;1260;61784;-71
2024/04/22 08:57:50;;;;;;;3.60;1.20;;;;;;;12.31;46.11;100509.80;106219;1260;62888;-60
2024/04/22 09:00:17;;;;;;;3.40;1.10;;;;;;;12.35;46.47;100505.72;104946;1261;62387;-73
2024/04/22 09:02:45;;;;;;;3.70;1.20;;;;;;;12.44;46.38;100510.81;106032;1259;60517;-71
2024/04/22 09:05:13;;;;;;;4.40;1.30;;;;;;;12.56;46.11;100508.03;105047;1260;64215;-62
2024/04/22 09:07:51;;;;;;;3.00;0.70;;;;;;;12.65;45.76;100517.43;104678;1261;62019;-71
2024/04/22 09:10:27;;;;;;;4.20;1.70;;;;;;;12.71;45.68;100519.55;104892;1261;64461;-58
2024/04/22 09:13:16;;;;;;;2.20;0.80;;;;;;;12.77;45.56;100522.71;104656;1260;61651;-67
2024/04/22 09:15:44;;;;;;;7.60;1.80;;;;;;;12.85;45.86;100518.14;105772;1260;60466;-68
2024/04/22 09:18:12;;;;;;;3.70;1.40;;;;;;;12.94;45.67;100518.09;105821;1261;76179;-70
2024/04/22 09:20:40;;;;;;;3.50;1.30;;;;;;;12.99;45.19;100516.27;105637;1261;73323;-65
2024/04/22 09:23:07;;;;;;;5.00;1.30;;;;;;;13.01;45.29;100517.83;105888;1266;74819;-67
2024/04/22 09:25:35;;;;;;;3.00;1.20;;;;;;;13.09;45.61;100517.65;105854;1260;60526;-70
2024/04/22 09:28:03;;;;;;;3.80;1.20;;;;;;;13.17;44.30;100526.56;105924;1261;60845;-68
2024/04/22 09:30:38;;;;;;;3.60;1.30;;;;;;;13.18;44.50;100529.38;105954;1260;67979;-63
2024/04/22 09:33:08;;;;;;;4.20;1.70;;;;;;;13.14;44.66;100532.31;105708;1260;61844;-68
2024/04/22 09:35:36;;;;;;;3.70;1.50;;;;;;;13.12;44.86;100532.00;105714;1261;64982;-62
2024/04/22 09:38:04;;;;;;;5.10;1.60;;;;;;;13.12;44.91;100529.87;106304;1260;62380;-66
2024/04/22 09:40:32;;;;;;;4.80;1.60;;;;;;;13.16;45.09;100530.04;105651;1261;60542;-60
2024/04/22 09:43:00;;;;;;;4.10;1.90;;;;;;;13.25;45.33;100539.88;105222;1263;65489;-68
2024/04/22 09:45:27;;;;;;;3.10;1.30;;;;;;;13.28;44.65;100545.22;105726;1260;62583;-63
2024/04/22 09:47:55;;;;;;;4.70;1.80;;;;;;;13.27;44.49;100537.58;104975;1261;64592;-62
2024/04/22 09:50:23;;;;;;;4.90;1.60;;;;;;;13.26;44.41;100547.70;105538;1264;60546;-66
2024/04/22 09:52:50;;;;;;;6.10;1.50;;;;;;;13.25;44.41;100546.89;105788;1260;60430;-63
2024/04/22 09:55:18;;;;;;;5.70;1.80;;;;;;;13.28;44.82;100544.39;104914;1260;76072;-67
2024/04/22 09:57:46;;;;;;;4.30;1.90;;;;;;;13.40;44.71;100543.81;106393;1261;64349;-67
2024/04/22 10:00:16;;;;;;;5.20;2.20;;;;;;;13.59;44.30;100549.17;105868;1261;75258;-61
2024/04/22 10:02:44;;;;;;;4.70;1.90;;;;;;;13.72;43.79;100557.90;108752;1260;58794;-62
2024/04/22 10:05:13;;;;;;;3.70;1.30;;;;;;;13.78;43.99;100562.08;106698;1260;60408;-63
2024/04/22 10:07:41;;;;;;;3.80;1.40;;;;;;;13.80;43.31;100571.33;105138;1263;67165;-63
2024/04/22 10:10:09;;;;;;;5.90;2.00;;;;;;;13.76;42.84;100575.69;105038;1265;72704;-62
2024/04/22 10:12:37;;;;;;;4.70;1.50;;;;;;;13.75;42.84;100582.09;104573;1260;64728;-62
2024/04/22 10:15:11;;;;;;;4.10;1.40;;;;;;;13.79;42.89;100581.77;105810;1260;60514;-68
2024/04/22 10:17:40;;;;;;;3.80;1.70;;;;;;;13.84;43.00;100579.17;105826;1263;59495;-68
2024/04/22 10:20:10;;;;;;;3.90;1.50;;;;;;;13.91;43.44;100587.66;105731;1266;77218;-60
2024/04/22 10:22:38;;;;;;;3.20;1.30;;;;;;;13.99;43.40;100590.73;105182;1263;60920;-60
2024/04/22 10:25:08;;;;;;;4.90;1.60;;;;;;;14.03;42.99;100595.98;104691;1261;64671;-75
2024/04/22 10:27:35;;;;;;;3.00;1.20;;;;;;;14.00;42.59;100594.70;105833;1260;60443;-67
2024/04/22 10:30:04;;;;;;;3.90;1.20;;;;;;;13.96;42.85;100597.70;105482;1266;60434;-69
2024/04/22 10:32:35;;;;;;;2.70;1.00;;;;;;;14.02;42.57;100605.63;106161;1261;65073;-70
2024/04/22 10:35:04;;;;;;;3.10;1.20;;;;;;;14.05;42.05;100610.29;105762;1260;71442;-67
2024/04/22 10:37:32;;;;;;;5.30;1.10;;;;;;;14.10;42.66;100600.42;105496;1260;74898;-66
2024/04/22 10:40:00;;;;;;;3.30;1.00;;;;;;;14.29;43.21;100598.57;105306;1260;60564;-58
2024/04/22 10:42:28;;;;;;;4.70;1.10;;;;;;;14.54;42.90;100605.39;104739;1266;61188;-65
2024/04/22 10:44:56;;;;;;;2.70;0.90;;;;;;;14.76;41.91;100613.52;105420;1263;65206;-68
2024/04/22 10:47:23;;;;;;;2.50;0.80;;;;;;;14.87;40.81;100616.69;105827;1266;71760;-65
2024/04/22 10:49:51;;;;;;;2.50;0.90;;;;;;;14.90;41.09;100615.41;105691;1267;72733;-72
2024/04/22 10:52:19;;;;;;;2.40;0.90;;;;;;;14.93;40.52;100621.77;105706;1261;62294;-63
2024/04/22 10:54:46;;;;;;;4.10;1.20;;;;;;;14.94;40.88;100620.80;105713;1260;60497;-66
2024/04/22 10:57:19;;;;;;;2.90;0.90;;;;;;;15.02;41.23;100621.93;105700;1263;68004;-70
2024/04/22 10:59:47;;;;;;;3.30;1.20;;;;;;;15.16;40.69;100624.52;105690;1261;63772;-68
2024/04/22 11:02:14;;;;;;;2.80;0.90;;;;;;;15.27;40.66;100625.61;105767;1260;75029;-70
2024/04/22 11:04:42;;;;;;;3.10;1.00;;;;;;;15.34;40.47;100624.42;105661;1260;60482;-72
2024/04/22 11:07:10;;;;;;;2.70;0.90;;;;;;;15.38;40.22;100630.69;105735;1260;62065;-69
2024/04/22 11:09:37;;;;;;;3.30;1.20;;;;;;;15.39;40.44;100639.64;105752;1261;65794;-68
2024/04/22 11:12:05;;;;;;;3.60;1.20;;;;;;;15.42;40.49;100633.31;104778;1260;62018;-62
2024/04/22 11:14:33;;;;;;;4.30;1.20;;;;;;;15.49;40.54;100634.81;105789;1264;73616;-61
2024/04/22 11:17:01;;;;;;;3.50;1.20;;;;;;;15.55;40.35;100639.95;104789;1261;60443;-62
2024/04/22 11:19:28;;;;;;;3.40;1.10;;;;;;;15.57;40.12;100639.68;105204;1260;60537;-60
2024/04/22 11:21:57;;;;;;;2.80;1.00;;;;;;;15.58;40.28;100644.86;105406;1260;71682;-58
2024/04/22 11:24:25;;;;;;;3.50;1.30;;;;;;;15.59;39.91;100644.80;104631;1261;72628;-62
2024/04/22 11:26:52;;;;;;;4.40;1.20;;;;;;;15.58;39.94;100650.06;104752;1260;64066;-61
2024/04/22 11:29:20;;;;;;;4.10;1.50;;;;;;;15.58;40.02;100647.41;105692;1264;60513;-59
2024/04/22 11:31:48;;;;;;;2.90;1.30;;;;;;;15.62;40.11;100655.48;105673;1259;59961;-63
2024/04/22 11:34:15;;;;;;;3.90;1.40;;;;;;;15.66;39.81;100655.61;104926;1261;72750;-60